• Join FlightAware (Why Join?)
  • Login
  • US Flag 
12:17AM EDT


 

Airport Tracker/Info


-or-


 

Live Flight TrackerFlight Track Log ✈ ASQ5958 ✈ 27-Jun-2013 ✈ KDTW - KORD

Flight Track Log - Related Links

Times and Time Zones

All times are in EDT time to prevent confusion due to time zone crossing. See the ASQ5958 flight status page for this flight to view local times or setup timezone preferences in your user account.

Time Position Orientation Groundspeed Altitude Reporting Facility
EDT Latitude Longitude Course Direction KTS MPH feet Rate Location/Type
07:46AM 42.2017 -83.3583 285° West 157 181 1,200  Level Cleveland Center
07:47AM 42.1475 -83.4369 227° Southwest 224 258 3,900 1,680 Climbing Cleveland Center
07:48AM 42.1083 -83.4997 230° Southwest 257 296 5,400 1,740 Climbing Cleveland Center
07:49AM 42.2724 -83.5901 289° West  Level FlightAware Approximate
07:49AM 42.0650 -83.5647 228° Southwest 276 318 6,900  Level Cleveland Center
07:50AM 42.2880 -83.6614 283° West  Level FlightAware Approximate
07:50AM 42.0986 -83.6392 301° West 282 325 8,700  Level Cleveland Center
07:51AM 42.3019 -83.7428 285° West  Level FlightAware Approximate
07:51AM 42.1564 -83.7344 309° West 288 331 10,400  Level Cleveland Center
07:52AM 42.2061 -83.8239 307° West 307 353 11,400 1,020 Climbing Cleveland Center
07:53AM 42.2656 -83.9250 308° West 326 375 12,500 1,200 Climbing Cleveland Center
07:54AM 42.3253 -84.0236 309° West 340 391 13,900 1,380 Climbing Cleveland Center
07:55AM 42.3847 -84.1253 308° West 340 391 15,300 1,200 Climbing Cleveland Center
07:56AM 42.4292 -84.2375 298° West 340 391 16,300 900 Climbing Cleveland Center
07:57AM 42.4311 -84.3756 271° West 336 387 17,200 960 Climbing Cleveland Center
07:58AM 42.4375 -84.5208 273° West 365 420 18,400 960 Climbing Chicago Center
07:59AM 42.4397 -84.6600 271° West 368 423 19,300 780 Climbing Chicago Center
08:00AM 42.4436 -84.7992 272° West 371 427 20,100 540 Climbing Chicago Center
08:01AM 42.4464 -84.9450 272° West 384 442 20,500 540 Climbing Chicago Center
08:02AM 42.4492 -85.0947 271° West 396 456 21,300 840 Climbing Chicago Center
08:03AM 42.4522 -85.2394 272° West 389 448 22,300 840 Climbing Chicago Center
08:04AM 42.4556 -85.4147 272° West 387 445 23,100 540 Climbing Chicago Center
08:05AM 42.4575 -85.5636 271° West 393 452 23,500 420 Climbing Chicago Center
08:06AM 42.4597 -85.7114 271° West 393 452 24,000 240 Climbing Chicago Center
08:07AM 42.4600 -85.8667 270° West 407 468 24,000  Level Chicago Center
08:08AM 42.4597 -86.0250 270° West 417 480 24,000 -540 Level Chicago Center
08:09AM 42.4592 -86.1850 270° West 423 487 22,900 -1,500 Descending Chicago Center
08:11AM 42.4589 -86.3411 270° West 416 479 21,000 -2,280 Descending Chicago Center
08:12AM 42.4589 -86.5200 270° West 397 457 18,200 -2,460 Descending Chicago Center
08:13AM 42.4575 -86.6683 269° West 392 451 15,900 -2,100 Descending Chicago Center
08:14AM 42.4592 -86.8128 271° West 388 447 13,900 -2,040 Descending Chicago Center
08:15AM 42.4586 -86.9494 270° West 374 430 11,700 -1,860 Descending Chicago Center
08:16AM 42.4550 -87.0836 268° West 362 417 10,100 -840 Descending Chicago Center
08:17AM 42.4300 -87.2044 254° West 336 387 10,000 -660 Descending Chicago Center
08:18AM 42.3978 -87.3236 250° West 288 331 8,800 -1,260 Descending Chicago Center
08:19AM 42.3567 -87.4081 237° Southwest 288 331 7,400 -1,320 Descending Chicago Center
08:20AM 42.2867 -87.4486 203° Southwest 282 325 6,100 -720 Descending Chicago Center
08:21AM 42.2175 -87.4889 203° Southwest 275 316 6,000 -300 Descending Chicago Center
08:22AM 42.1475 -87.5319 205° Southwest 277 319 5,500 -840 Descending Chicago Center
08:23AM 42.0800 -87.5758 206° Southwest 274 315 4,300 -780 Descending Chicago Center
08:24AM 42.0272 -87.6656 232° Southwest 261 300 4,000 -720 Descending Chicago Center
08:25AM 42.0008 -87.7531 248° West 256 295 2,900 -1,080 Descending Chicago Center
08:26AM 42.0031 -87.8242 272° West 212 244 1,800 -840 Descending Chicago Center
08:27AM 42.0033 -87.8792 270° West 177 204 1,200 -600 Descending Chicago Center
08:29AM 41.9817 -87.9067 206° Southwest  Level Estimated
08:36AM 41.9817 -87.9067 206° Southwest  Level Estimated